Time;durP1;ratioP1;P1;durP2;ratioP2;P2;SDS_P1;SDS_P2;PMS_P1;PMS_P2;Temp;Humidity;BMP_temperature;BMP_pressure;BME280_temperature;BME280_humidity;BME280_pressure;Samples;Min_cycle;Max_cycle;Signal;HPM_P1;HPM_P2
2024/02/22 00:02:05;;;;;;;;;;;7.60;99.90;;;-146.41;100.00;57768.22;5042752;28;1539;-67
2024/02/22 00:04:32;;;;;;;;;;;7.60;99.90;;;-146.41;100.00;57768.22;5050195;28;1985;-67
2024/02/22 00:06:59;;;;;;;;;;;7.60;99.90;;;-146.41;100.00;57768.22;5043434;28;1337;-66
2024/02/22 00:09:26;;;;;;;;;;;7.60;99.90;;;-146.41;100.00;57768.22;5040505;28;1308;-67
2024/02/22 00:11:53;;;;;;;;;;;7.60;99.90;;;-146.41;100.00;57768.22;5041036;28;2014;-67
2024/02/22 00:14:19;;;;;;;;;;;7.60;99.90;;;-146.41;100.00;57768.22;5041323;28;1344;-67
2024/02/22 00:16:46;;;;;;;;;;;7.60;99.90;;;-146.41;100.00;57768.22;5040156;28;1402;-70
2024/02/22 00:19:13;;;;;;;;;;;7.70;99.90;;;-146.41;100.00;57768.22;5058666;28;1411;-68
2024/02/22 00:21:40;;;;;;;;;;;7.70;99.90;;;-146.41;100.00;57768.22;5036524;28;1500;-68
2024/02/22 00:24:07;;;;;;;;;;;7.70;99.90;;;-146.41;100.00;57768.22;5038877;28;2020;-68
2024/02/22 00:26:34;;;;;;;;;;;7.70;99.90;;;-146.41;100.00;57768.22;5037389;28;3316;-67
2024/02/22 00:29:00;;;;;;;;;;;7.70;99.90;;;-146.41;100.00;57768.22;5037422;28;1434;-67
2024/02/22 00:31:27;;;;;;;;;;;7.70;99.90;;;-146.41;100.00;57768.22;5038329;28;1493;-66
2024/02/22 00:33:54;;;;;;;;;;;7.70;99.90;;;-146.41;100.00;57768.22;5041034;28;1457;-67
2024/02/22 00:36:21;;;;;;;;;;;7.70;99.90;;;-146.41;100.00;57768.22;5038081;28;1372;-67
2024/02/22 00:38:48;;;;;;;;;;;7.70;99.90;;;-146.41;100.00;57768.22;5039532;28;1495;-67
2024/02/22 00:41:15;;;;;;;;;;;7.70;99.90;;;-146.41;100.00;57768.22;5039986;28;2072;-67
2024/02/22 00:43:43;;;;;;;;;;;7.70;99.90;;;-146.41;100.00;57768.22;5056558;28;1902;-67
2024/02/22 00:46:10;;;;;;;;;;;7.70;99.90;;;-146.41;100.00;57768.22;5039787;28;1465;-66
2024/02/22 00:48:37;;;;;;;;;;;7.70;99.90;;;-146.41;100.00;57768.22;5040171;28;1552;-66
2024/02/22 00:51:04;;;;;;;;;;;7.70;99.90;;;-146.41;100.00;57768.22;5041046;28;2268;-66
2024/02/22 00:53:30;;;;;;;;;;;7.70;99.90;;;-146.41;100.00;57768.22;5040584;28;1373;-68
2024/02/22 00:55:57;;;;;;;;;;;7.80;99.90;;;-146.41;100.00;57768.22;5042383;28;1253;-66
2024/02/22 00:58:24;;;;;;;;;;;7.80;99.90;;;-146.41;100.00;57768.22;5040958;28;1423;-66
2024/02/22 01:00:51;;;;;;;;;;;7.70;99.90;;;-146.41;100.00;57768.22;5038144;28;1388;-66
2024/02/22 01:03:18;;;;;;;;;;;7.70;99.90;;;-146.41;100.00;57768.22;5037122;28;3217;-67
2024/02/22 01:05:44;;;;;;;;;;;7.70;99.90;;;-146.41;100.00;57768.22;5039954;28;1459;-67
2024/02/22 01:08:11;;;;;;;;;;;7.70;99.90;;;-146.41;100.00;57768.22;5042525;28;1262;-66
2024/02/22 01:10:38;;;;;;;;;;;7.70;99.90;;;-146.41;100.00;57768.22;5037438;28;1523;-66
2024/02/22 01:13:05;;;;;;;;;;;7.70;99.90;;;-146.41;100.00;57768.22;5040496;28;1328;-66
2024/02/22 01:15:32;;;;;;;;;;;7.60;99.90;;;-146.41;100.00;57768.22;5039294;28;1412;-67
2024/02/22 01:18:03;;;;;;;;;;;7.70;99.90;;;-146.41;100.00;57768.22;5039475;28;2027;-66
2024/02/22 01:20:30;;;;;;;;;;;7.70;99.90;;;-146.41;100.00;57768.22;5037941;28;2556;-66
2024/02/22 01:23:00;;;;;;;;;;;7.70;99.90;;;-146.41;100.00;57768.22;5038219;28;2578;-67
2024/02/22 01:25:27;;;;;;;;;;;7.80;99.90;;;-146.41;100.00;57768.22;5039261;28;1938;-66
2024/02/22 01:27:54;;;;;;;;;;;7.80;99.90;;;-146.41;100.00;57768.22;5034972;28;1202;-66
2024/02/22 01:30:21;;;;;;;;;;;7.80;99.90;;;-146.41;100.00;57768.22;5039562;28;1410;-67
2024/02/22 01:32:48;;;;;;;;;;;7.90;99.90;;;-146.41;100.00;57768.22;5039451;28;1418;-66
2024/02/22 01:35:15;;;;;;;;;;;7.70;99.90;;;-146.41;100.00;57768.22;5038585;28;2423;-67
2024/02/22 01:37:42;;;;;;;;;;;7.80;99.90;;;-146.41;100.00;57768.22;5039457;28;1481;-67
2024/02/22 01:40:12;;;;;;;;;;;7.80;99.90;;;-146.41;100.00;57768.22;5038466;28;1327;-67
2024/02/22 01:42:42;;;;;;;;;;;7.80;99.90;;;-146.41;100.00;57768.22;5039098;28;1254;-68
2024/02/22 01:45:10;;;;;;;;;;;7.80;99.90;;;-146.41;100.00;57768.22;5041458;28;1902;-68
2024/02/22 01:47:37;;;;;;;;;;;7.80;99.90;;;-146.41;100.00;57768.22;5039400;28;1522;-68
2024/02/22 01:50:07;;;;;;;;;;;7.80;99.90;;;-146.41;100.00;57768.22;5043021;28;3105;-68
2024/02/22 01:52:35;;;;;;;;;;;7.80;99.90;;;-146.41;100.00;57768.22;5037055;28;1487;-68
2024/02/22 01:55:02;;;;;;;;;;;7.90;99.90;;;-146.41;100.00;57768.22;5040035;28;1387;-66
2024/02/22 01:57:29;;;;;;;;;;;7.80;99.90;;;-146.41;100.00;57768.22;5037683;28;1654;-67
2024/02/22 01:59:56;;;;;;;;;;;7.90;99.90;;;-146.41;100.00;57768.22;5038657;28;1402;-67
2024/02/22 02:02:22;;;;;;;;;;;7.90;99.90;;;-146.41;100.00;57768.22;5022725;28;1252;-68
2024/02/22 02:04:49;;;;;;;;;;;7.80;99.90;;;-146.41;100.00;57768.22;5036489;28;2062;-68
2024/02/22 02:07:16;;;;;;;;;;;7.90;99.90;;;-146.41;100.00;57768.22;5040506;28;1014;-67
2024/02/22 02:09:43;;;;;;;;;;;7.90;99.90;;;-146.41;100.00;57768.22;5039328;28;1344;-68
2024/02/22 02:12:10;;;;;;;;;;;7.90;99.90;;;-146.41;100.00;57768.22;5043143;28;1339;-67
2024/02/22 02:14:37;;;;;;;;;;;7.90;99.90;;;-146.41;100.00;57768.22;5046695;28;1366;-67
2024/02/22 02:17:04;;;;;;;;;;;7.90;99.90;;;-146.41;100.00;57768.22;5043429;28;2518;-68
2024/02/22 02:19:32;;;;;;;;;;;7.90;99.90;;;-146.41;100.00;57768.22;5040832;28;1299;-68
2024/02/22 02:22:11;;;;;;;;;;;7.90;99.90;;;-146.41;100.00;57768.22;5042074;28;1316;-67
2024/02/22 02:24:41;;;;;;;;;;;7.90;99.90;;;-146.41;100.00;57768.22;5046868;28;1989;-68
2024/02/22 02:27:08;;;;;;;;;;;8.00;99.90;;;-146.41;100.00;57768.22;5045166;28;1215;-68
2024/02/22 02:29:35;;;;;;;;;;;8.00;99.90;;;-146.41;100.00;57768.22;5042025;28;1368;-68
2024/02/22 02:32:01;;;;;;;;;;;8.00;99.90;;;-146.41;100.00;57768.22;5039179;28;3376;-67
2024/02/22 02:34:28;;;;;;;;;;;8.00;99.90;;;-146.41;100.00;57768.22;5042209;28;2109;-68
2024/02/22 02:36:56;;;;;;;;;;;8.00;99.90;;;-146.41;100.00;57768.22;5059644;28;1385;-69
2024/02/22 02:39:23;;;;;;;;;;;8.00;99.90;;;-146.41;100.00;57768.22;5045556;28;1290;-68
2024/02/22 02:41:51;;;;;;;;;;;8.10;99.90;;;-146.41;100.00;57768.22;5049071;28;1332;-67
2024/02/22 02:44:18;;;;;;;;;;;8.10;99.90;;;-146.41;100.00;57768.22;5046682;28;1910;-68
2024/02/22 02:46:45;;;;;;;;;;;8.10;99.90;;;-146.41;100.00;57768.22;5039652;28;1943;-68
2024/02/22 02:49:12;;;;;;;;;;;8.10;99.90;;;-146.41;100.00;57768.22;5041706;28;2650;-67
2024/02/22 02:51:39;;;;;;;;;;;8.10;99.90;;;-146.41;100.00;57768.22;5058629;28;2697;-68
2024/02/22 02:54:05;;;;;;;;;;;8.10;99.90;;;-146.41;100.00;57768.22;5042317;28;1258;-68
2024/02/22 02:56:32;;;;;;;;;;;8.10;99.90;;;-146.41;100.00;57768.22;5057821;28;1308;-68
2024/02/22 02:58:59;;;;;;;;;;;8.00;99.90;;;-146.41;100.00;57768.22;5042191;28;1329;-68
2024/02/22 03:01:26;;;;;;;;;;;8.10;99.90;;;-146.41;100.00;57768.22;5041263;28;1593;-67
2024/02/22 03:03:53;;;;;;;;;;;8.00;99.90;;;-146.41;100.00;57768.22;5039213;28;1910;-67
2024/02/22 03:06:20;;;;;;;;;;;8.00;99.90;;;-146.41;100.00;57768.22;5044184;28;1499;-67
2024/02/22 03:08:47;;;;;;;;;;;8.00;99.90;;;-146.41;100.00;57768.22;5040886;28;2634;-67
2024/02/22 03:11:13;;;;;;;;;;;8.10;99.90;;;-146.41;100.00;57768.22;5040816;28;1452;-67
2024/02/22 03:13:40;;;;;;;;;;;8.10;99.90;;;-146.41;100.00;57768.22;5044053;28;1524;-67
2024/02/22 03:16:07;;;;;;;;;;;8.10;99.90;;;-146.41;100.00;57768.22;5040166;28;1803;-67
2024/02/22 03:18:34;;;;;;;;;;;8.10;99.90;;;-146.41;100.00;57768.22;5039493;28;1384;-68
2024/02/22 03:21:02;;;;;;;;;;;8.10;99.90;;;-146.41;100.00;57768.22;5041308;28;1461;-66
2024/02/22 03:23:28;;;;;;;;;;;8.10;99.90;;;-146.41;100.00;57768.22;5041976;28;3550;-67
2024/02/22 03:25:56;;;;;;;;;;;8.10;99.90;;;-146.41;100.00;57768.22;5040507;28;1914;-67
2024/02/22 03:28:23;;;;;;;;;;;8.10;99.90;;;-146.41;100.00;57768.22;5040692;28;2591;-67
2024/02/22 03:30:52;;;;;;;;;;;8.10;99.90;;;-146.41;100.00;57768.22;5043030;28;1433;-67
2024/02/22 03:33:19;;;;;;;;;;;8.10;99.90;;;-146.41;100.00;57768.22;5035786;28;1330;-68
2024/02/22 03:35:46;;;;;;;;;;;8.10;99.90;;;-146.41;100.00;57768.22;5043232;28;2522;-67
2024/02/22 03:38:12;;;;;;;;;;;8.10;99.90;;;-146.41;100.00;57768.22;5042383;28;1405;-68
2024/02/22 03:40:39;;;;;;;;;;;8.10;99.90;;;-146.41;100.00;57768.22;5042872;28;1523;-68
2024/02/22 03:43:06;;;;;;;;;;;8.20;99.90;;;-146.41;100.00;57768.22;5042108;28;1210;-68
2024/02/22 03:45:33;;;;;;;;;;;8.10;99.90;;;-146.41;100.00;57768.22;5040671;28;1906;-68
2024/02/22 03:48:00;;;;;;;;;;;8.20;99.90;;;-146.41;100.00;57768.22;5038128;28;1345;-68
2024/02/22 03:50:27;;;;;;;;;;;8.20;99.90;;;-146.41;100.00;57768.22;5039726;28;2444;-68
2024/02/22 03:52:54;;;;;;;;;;;8.10;99.90;;;-146.41;100.00;57768.22;5038364;28;1398;-67
2024/02/22 03:55:21;;;;;;;;;;;8.20;99.90;;;-146.41;100.00;57768.22;5037016;28;1068;-68
2024/02/22 03:57:48;;;;;;;;;;;8.20;99.90;;;-146.41;100.00;57768.22;5041061;28;1282;-68
2024/02/22 04:00:15;;;;;;;;;;;8.20;99.90;;;-146.41;100.00;57768.22;5053081;28;1386;-68
2024/02/22 04:02:46;;;;;;;;;;;8.20;99.90;;;-146.41;100.00;57768.22;5041385;28;1287;-68
2024/02/22 04:05:14;;;;;;;;;;;8.10;99.90;;;-146.41;100.00;57768.22;5039759;28;1989;-68
2024/02/22 04:07:44;;;;;;;;;;;8.20;99.90;;;-146.41;100.00;57768.22;5040565;28;3821;-68
2024/02/22 04:10:11;;;;;;;;;;;8.20;99.90;;;-146.41;100.00;57768.22;5039022;28;1438;-66
2024/02/22 04:12:38;;;;;;;;;;;8.20;99.90;;;-146.41;100.00;57768.22;5038286;28;1335;-68
2024/02/22 04:15:05;;;;;;;;;;;8.20;99.90;;;-146.41;100.00;57768.22;5040782;28;1330;-69
2024/02/22 04:17:32;;;;;;;;;;;8.20;99.90;;;-146.41;100.00;57768.22;5038668;28;1380;-68
2024/02/22 04:20:00;;;;;;;;;;;8.20;99.90;;;-146.41;100.00;57768.22;5043538;28;2003;-68
2024/02/22 04:22:27;;;;;;;;;;;8.20;99.90;;;-146.41;100.00;57768.22;5038783;28;1290;-68
2024/02/22 04:24:53;;;;;;;;;;;8.20;99.90;;;-146.41;100.00;57768.22;5039849;28;1942;-68
2024/02/22 04:27:20;;;;;;;;;;;8.20;99.90;;;-146.41;100.00;57768.22;5038045;28;1474;-68
2024/02/22 04:29:47;;;;;;;;;;;8.20;99.90;;;-146.41;100.00;57768.22;5040871;28;1360;-67
2024/02/22 04:32:14;;;;;;;;;;;8.30;99.90;;;-146.41;100.00;57768.22;5043969;28;1379;-68
2024/02/22 04:34:41;;;;;;;;;;;8.20;99.90;;;-146.41;100.00;57768.22;5040320;28;2004;-68
2024/02/22 04:37:08;;;;;;;;;;;8.30;99.90;;;-146.41;100.00;57768.22;5037337;28;1394;-67
2024/02/22 04:39:35;;;;;;;;;;;8.30;99.90;;;-146.41;100.00;57768.22;5040399;28;1626;-68
2024/02/22 04:42:02;;;;;;;;;;;8.30;99.90;;;-146.41;100.00;57768.22;5039624;28;1312;-66
2024/02/22 04:44:29;;;;;;;;;;;8.30;99.90;;;-146.41;100.00;57768.22;5040789;28;1954;-67
2024/02/22 04:46:55;;;;;;;;;;;8.30;99.90;;;-146.41;100.00;57768.22;5040138;28;1709;-67
2024/02/22 04:49:22;;;;;;;;;;;8.30;99.90;;;-146.41;100.00;57768.22;5039486;28;3472;-67
2024/02/22 04:51:51;;;;;;;;;;;8.30;99.90;;;-146.41;100.00;57768.22;5041356;28;2915;-67
2024/02/22 04:54:18;;;;;;;;;;;8.30;99.90;;;-146.41;100.00;57768.22;5036171;28;2824;-67
2024/02/22 04:56:45;;;;;;;;;;;8.30;99.90;;;-146.41;100.00;57768.22;5041368;28;1314;-68
2024/02/22 04:59:11;;;;;;;;;;;8.30;99.90;;;-146.41;100.00;57768.22;5041565;28;1381;-68
2024/02/22 05:01:39;;;;;;;;;;;8.20;99.90;;;-146.41;100.00;57768.22;5039904;28;1386;-68
2024/02/22 05:04:09;;;;;;;;;;;8.30;99.90;;;-146.41;100.00;57768.22;5044734;28;2481;-67
2024/02/22 05:06:36;;;;;;;;;;;8.20;99.90;;;-146.41;100.00;57768.22;5040375;28;1918;-68
2024/02/22 05:09:03;;;;;;;;;;;8.20;99.90;;;-146.41;100.00;57768.22;5040806;28;1239;-67
2024/02/22 05:11:29;;;;;;;;;;;8.20;99.90;;;-146.41;100.00;57768.22;5037010;28;1366;-68
2024/02/22 05:13:59;;;;;;;;;;;8.20;99.90;;;-146.41;100.00;57768.22;5039652;28;1385;-68
2024/02/22 05:16:26;;;;;;;;;;;8.20;99.90;;;-146.41;100.00;57768.22;5038973;28;2158;-67
2024/02/22 05:18:53;;;;;;;;;;;8.20;99.90;;;-146.41;100.00;57768.22;5037367;28;1535;-68
2024/02/22 05:21:20;;;;;;;;;;;8.20;99.90;;;-146.41;100.00;57768.22;5040094;28;1366;-67
2024/02/22 05:23:47;;;;;;;;;;;8.20;99.90;;;-146.41;100.00;57768.22;5036994;28;1179;-68
2024/02/22 05:26:13;;;;;;;;;;;8.20;99.90;;;-146.41;100.00;57768.22;5041634;28;1980;-67
2024/02/22 05:28:41;;;;;;;;;;;8.20;99.90;;;-146.41;100.00;57768.22;5039395;28;3148;-68
2024/02/22 05:31:23;;;;;;;;;;;8.20;99.90;;;-146.41;100.00;57768.22;5037471;28;2423;-67
2024/02/22 05:33:50;;;;;;;;;;;8.20;99.90;;;-146.41;100.00;57768.22;5040674;28;2582;-67
2024/02/22 05:36:18;;;;;;;;;;;8.20;99.90;;;-146.41;100.00;57768.22;5041809;28;1329;-67
2024/02/22 05:38:45;;;;;;;;;;;8.20;99.90;;;-146.41;100.00;57768.22;5038574;28;1100;-68
2024/02/22 05:41:12;;;;;;;;;;;8.20;99.90;;;-146.41;100.00;57768.22;5037686;28;1457;-67
2024/02/22 05:43:39;;;;;;;;;;;8.20;99.90;;;-146.41;100.00;57768.22;5035758;28;1353;-67
2024/02/22 05:46:07;;;;;;;;;;;8.30;99.90;;;-146.41;100.00;57768.22;5040073;28;2609;-67
2024/02/22 05:48:34;;;;;;;;;;;8.20;99.90;;;-146.41;100.00;57768.22;5042712;28;1335;-67
2024/02/22 05:51:00;;;;;;;;;;;8.20;99.90;;;-146.41;100.00;57768.22;5042157;28;1334;-66
2024/02/22 05:53:27;;;;;;;;;;;8.30;99.90;;;-146.41;100.00;57768.22;5041187;28;1329;-66
2024/02/22 05:55:54;;;;;;;;;;;8.30;99.90;;;-146.41;100.00;57768.22;5043128;28;1382;-68
2024/02/22 05:58:21;;;;;;;;;;;8.30;99.90;;;-146.41;100.00;57768.22;5040633;28;1447;-68
2024/02/22 06:00:48;;;;;;;;;;;8.30;99.90;;;-146.41;100.00;57768.22;5042749;28;2506;-67
2024/02/22 06:03:15;;;;;;;;;;;8.30;99.90;;;-146.41;100.00;57768.22;5042336;28;1369;-67
2024/02/22 06:05:43;;;;;;;;;;;8.30;99.90;;;-146.41;100.00;57768.22;5041910;28;1977;-68
2024/02/22 06:08:11;;;;;;;;;;;8.30;99.90;;;-146.41;100.00;57768.22;5043695;28;1314;-67
2024/02/22 06:10:38;;;;;;;;;;;8.30;99.90;;;-146.41;100.00;57768.22;5044332;28;1396;-67
2024/02/22 06:13:05;;;;;;;;;;;8.30;99.90;;;-146.41;100.00;57768.22;5042049;28;1907;-68
2024/02/22 06:15:32;;;;;;;;;;;8.30;99.90;;;-146.41;100.00;57768.22;5041905;28;3349;-68
2024/02/22 06:17:59;;;;;;;;;;;8.30;99.90;;;-146.41;100.00;57768.22;5039469;28;2590;-68
2024/02/22 06:20:26;;;;;;;;;;;8.30;99.90;;;-146.41;100.00;57768.22;5043393;28;1408;-68
2024/02/22 06:22:53;;;;;;;;;;;8.30;99.90;;;-146.41;100.00;57768.22;5042495;28;1473;-68
2024/02/22 06:25:20;;;;;;;;;;;8.40;99.90;;;-146.41;100.00;57768.22;5041812;28;1903;-68
2024/02/22 06:27:47;;;;;;;;;;;8.40;99.90;;;-146.41;100.00;57768.22;5040663;28;1401;-67
2024/02/22 06:30:14;;;;;;;;;;;8.40;99.90;;;-146.41;100.00;57768.22;5040593;28;1971;-68
2024/02/22 06:32:41;;;;;;;;;;;8.40;99.90;;;-146.41;100.00;57768.22;5040198;28;1085;-67
2024/02/22 06:35:09;;;;;;;;;;;8.40;99.90;;;-146.41;100.00;57768.22;5041784;28;1435;-68
2024/02/22 06:37:36;;;;;;;;;;;8.40;99.90;;;-146.41;100.00;57768.22;5041096;28;1403;-67
2024/02/22 06:40:07;;;;;;;;;;;8.40;99.90;;;-146.41;100.00;57768.22;5039845;28;1377;-67
2024/02/22 06:42:34;;;;;;;;;;;8.40;99.90;;;-146.41;100.00;57768.22;5038386;28;1420;-68
2024/02/22 06:45:01;;;;;;;;;;;8.40;99.90;;;-146.41;100.00;57768.22;5040100;28;2154;-67
2024/02/22 06:47:28;;;;;;;;;;;8.40;99.90;;;-146.41;100.00;57768.22;5042052;28;1213;-68
2024/02/22 06:49:55;;;;;;;;;;;8.40;99.90;;;-146.41;100.00;57768.22;5040358;28;1292;-66
2024/02/22 06:52:22;;;;;;;;;;;8.40;99.90;;;-146.41;100.00;57768.22;5041779;28;1377;-65
2024/02/22 06:54:52;;;;;;;;;;;8.40;99.90;;;-146.41;100.00;57768.22;5045151;28;1284;-66
2024/02/22 06:57:19;;;;;;;;;;;8.40;99.90;;;-146.41;100.00;57768.22;5044477;28;1355;-68
2024/02/22 06:59:46;;;;;;;;;;;8.50;99.90;;;-146.41;100.00;57768.22;5040503;28;3591;-68
2024/02/22 07:02:17;;;;;;;;;;;8.50;99.90;;;-146.41;100.00;57768.22;5043773;28;1515;-68
2024/02/22 07:04:45;;;;;;;;;;;8.50;99.90;;;-146.41;100.00;57768.22;5038797;28;1205;-68
2024/02/22 07:07:12;;;;;;;;;;;8.50;99.90;;;-146.41;100.00;57768.22;5039834;28;2526;-67
2024/02/22 07:09:39;;;;;;;;;;;8.50;99.90;;;-146.41;100.00;57768.22;5042647;28;2373;-67
2024/02/22 07:12:07;;;;;;;;;;;8.50;99.90;;;-146.41;100.00;57768.22;5037620;28;1449;-68
2024/02/22 07:14:35;;;;;;;;;;;8.50;99.90;;;-146.41;100.00;57768.22;5038941;28;1200;-67
2024/02/22 07:17:02;;;;;;;;;;;8.50;99.90;;;-146.41;100.00;57768.22;5038773;28;1133;-67
2024/02/22 07:19:29;;;;;;;;;;;8.60;99.90;;;-146.41;100.00;57768.22;5038820;28;941;-67
2024/02/22 07:21:56;;;;;;;;;;;8.60;99.90;;;-146.41;100.00;57768.22;5041428;28;1408;-67
2024/02/22 07:24:23;;;;;;;;;;;8.60;99.90;;;-146.41;100.00;57768.22;5040985;28;2518;-68
2024/02/22 07:26:49;;;;;;;;;;;8.60;99.90;;;-146.41;100.00;57768.22;5039740;28;1902;-68
2024/02/22 07:29:17;;;;;;;;;;;8.60;99.90;;;-146.41;100.00;57768.22;5042782;28;2798;-68
2024/02/22 07:31:44;;;;;;;;;;;8.70;99.90;;;-146.41;100.00;57768.22;5047673;28;1284;-68
2024/02/22 07:34:11;;;;;;;;;;;8.70;99.90;;;-146.41;100.00;57768.22;5037488;28;1117;-68
2024/02/22 07:36:38;;;;;;;;;;;8.70;99.90;;;-146.41;100.00;57768.22;5038005;28;966;-68
2024/02/22 07:39:05;;;;;;;;;;;8.80;99.90;;;-146.41;100.00;57768.22;5042800;28;1152;-66
2024/02/22 07:41:32;;;;;;;;;;;8.70;99.90;;;-146.41;100.00;57768.22;5037406;28;3078;-66
2024/02/22 07:43:59;;;;;;;;;;;8.70;99.90;;;-146.41;100.00;57768.22;5042899;28;1019;-67
2024/02/22 07:46:27;;;;;;;;;;;8.70;99.90;;;-146.41;100.00;57768.22;5039621;28;1931;-67
2024/02/22 07:48:55;;;;;;;;;;;8.80;99.90;;;-146.41;100.00;57768.22;5042798;28;1114;-67
2024/02/22 07:51:22;;;;;;;;;;;8.80;99.90;;;-146.41;100.00;57768.22;5040678;28;1228;-67
2024/02/22 07:53:49;;;;;;;;;;;8.70;99.90;;;-146.41;100.00;57768.22;5036322;28;1288;-66
2024/02/22 07:56:16;;;;;;;;;;;8.80;99.90;;;-146.41;100.00;57768.22;5038487;28;2098;-67
2024/02/22 07:58:53;;;;;;;;;;;8.70;99.90;;;-146.41;100.00;57768.22;5041350;28;1077;-66
2024/02/22 08:01:20;;;;;;;;;;;8.80;99.90;;;-146.41;100.00;57768.22;5037825;28;1410;-66
2024/02/22 08:03:48;;;;;;;;;;;8.80;99.90;;;-146.41;100.00;57768.22;5039062;28;1072;-66
2024/02/22 08:06:16;;;;;;;;;;;8.80;99.90;;;-146.41;100.00;57768.22;5035494;28;1977;-66
2024/02/22 08:08:43;;;;;;;;;;;8.80;99.90;;;-146.41;100.00;57768.22;5041147;28;1019;-66
2024/02/22 08:11:12;;;;;;;;;;;8.80;99.90;;;-146.41;100.00;57768.22;5039114;28;2063;-66
2024/02/22 08:13:39;;;;;;;;;;;8.80;99.90;;;-146.41;100.00;57768.22;5040281;28;1515;-66
2024/02/22 08:16:08;;;;;;;;;;;8.80;99.90;;;-146.41;100.00;57768.22;5039177;28;1371;-66
2024/02/22 08:18:36;;;;;;;;;;;8.80;99.90;;;-146.41;100.00;57768.22;5041307;28;1188;-67
2024/02/22 08:21:05;;;;;;;;;;;8.80;99.90;;;-146.41;100.00;57768.22;5040558;28;1411;-66
2024/02/22 08:23:32;;;;;;;;;;;8.70;99.90;;;-146.41;100.00;57768.22;5040845;28;3084;-66
2024/02/22 08:25:59;;;;;;;;;;;8.80;99.90;;;-146.41;100.00;57768.22;5041193;28;2689;-66
2024/02/22 08:28:29;;;;;;;;;;;8.80;99.90;;;-146.41;100.00;57768.22;5039835;28;1112;-66
2024/02/22 08:30:56;;;;;;;;;;;8.80;99.90;;;-146.41;100.00;57768.22;5041493;28;1248;-67
2024/02/22 08:33:25;;;;;;;;;;;8.80;99.90;;;-146.41;100.00;57768.22;5051951;28;1267;-65
2024/02/22 08:35:54;;;;;;;;;;;8.80;99.90;;;-146.41;100.00;57768.22;5053971;28;1232;-66
2024/02/22 08:38:21;;;;;;;;;;;8.80;99.90;;;-146.41;100.00;57768.22;5040352;28;1199;-67
2024/02/22 08:40:48;;;;;;;;;;;8.90;99.90;;;-146.41;100.00;57768.22;5037534;28;2126;-67
2024/02/22 08:43:16;;;;;;;;;;;8.90;99.90;;;-146.41;100.00;57768.22;5036097;28;1121;-67
2024/02/22 08:45:43;;;;;;;;;;;8.90;99.90;;;-146.41;100.00;57768.22;5037927;28;1984;-67
2024/02/22 08:48:10;;;;;;;;;;;8.80;99.90;;;-146.41;100.00;57768.22;5039033;28;1083;-66
2024/02/22 08:50:37;;;;;;;;;;;8.90;99.90;;;-146.41;100.00;57768.22;5044009;28;2623;-67
2024/02/22 08:53:04;;;;;;;;;;;8.90;99.90;;;-146.41;100.00;57768.22;5040027;28;1087;-67
2024/02/22 08:55:31;;;;;;;;;;;8.90;99.90;;;-146.41;100.00;57768.22;5042022;28;1077;-67
2024/02/22 08:57:58;;;;;;;;;;;9.00;99.90;;;-146.41;100.00;57768.22;5037331;28;1078;-67
2024/02/22 09:00:28;;;;;;;;;;;9.00;99.90;;;-146.41;100.00;57768.22;5040195;28;1264;-67
2024/02/22 09:02:55;;;;;;;;;;;9.00;99.90;;;-146.41;100.00;57768.22;5037870;28;3202;-66
2024/02/22 09:05:22;;;;;;;;;;;9.00;99.90;;;-146.41;100.00;57768.22;5040874;28;2028;-66
2024/02/22 09:07:49;;;;;;;;;;;9.00;99.90;;;-146.41;100.00;57768.22;5038613;28;1006;-67
2024/02/22 09:10:17;;;;;;;;;;;9.00;99.90;;;-146.41;100.00;57768.22;5037841;28;1442;-66
2024/02/22 09:12:44;;;;;;;;;;;9.00;99.90;;;-146.41;100.00;57768.22;5039265;28;1242;-66
2024/02/22 09:15:11;;;;;;;;;;;9.00;99.90;;;-146.41;100.00;57768.22;5036946;28;1129;-67
2024/02/22 09:17:38;;;;;;;;;;;9.00;99.90;;;-146.41;100.00;57768.22;5037356;28;2197;-67
2024/02/22 09:20:06;;;;;;;;;;;9.10;99.90;;;-146.41;100.00;57768.22;5037629;28;1308;-67
2024/02/22 09:22:33;;;;;;;;;;;9.20;99.90;;;-146.41;100.00;57768.22;5039829;28;1130;-67
2024/02/22 09:25:00;;;;;;;;;;;9.20;99.90;;;-146.41;100.00;57768.22;5034689;28;1072;-66
2024/02/22 09:27:29;;;;;;;;;;;9.20;99.90;;;-146.41;100.00;57768.22;5040005;28;2044;-66
2024/02/22 09:29:58;;;;;;;;;;;9.10;99.90;;;-146.41;100.00;57768.22;5036413;28;2566;-67
2024/02/22 09:32:25;;;;;;;;;;;9.20;99.90;;;-146.41;100.00;57768.22;5038327;28;1717;-67
2024/02/22 09:34:52;;;;;;;;;;;9.10;99.90;;;-146.41;100.00;57768.22;5040344;28;1012;-67
2024/02/22 09:37:19;;;;;;;;;;;9.20;99.90;;;-146.41;100.00;57768.22;5033675;28;1169;-67
2024/02/22 09:39:48;;;;;;;;;;;9.20;99.90;;;-146.41;100.00;57768.22;5040241;28;1430;-67
2024/02/22 09:42:15;;;;;;;;;;;9.20;99.90;;;-146.41;100.00;57768.22;5041585;28;3247;-66
2024/02/22 09:44:43;;;;;;;;;;;9.20;99.90;;;-146.41;100.00;57768.22;5036428;28;2670;-67
2024/02/22 09:47:10;;;;;;;;;;;9.30;99.90;;;-146.41;100.00;57768.22;5038691;28;2019;-67
2024/02/22 09:49:39;;;;;;;;;;;9.20;99.90;;;-146.41;100.00;57768.22;5053641;28;1153;-66
2024/02/22 09:52:06;;;;;;;;;;;9.30;99.90;;;-146.41;100.00;57768.22;5036910;28;1339;-66
2024/02/22 09:54:33;;;;;;;;;;;9.20;99.90;;;-146.41;100.00;57768.22;5036856;28;1172;-66
2024/02/22 09:57:00;;;;;;;;;;;9.20;99.90;;;-146.41;100.00;57768.22;5047549;28;1061;-66
2024/02/22 09:59:27;;;;;;;;;;;9.20;99.90;;;-146.41;100.00;57768.22;5039938;28;1236;-67
2024/02/22 10:01:56;;;;;;;;;;;9.20;99.90;;;-146.41;100.00;57768.22;5036551;28;1913;-66
2024/02/22 10:04:23;;;;;;;;;;;9.20;99.90;;;-146.41;100.00;57768.22;5036905;28;1046;-66
2024/02/22 10:06:59;;;;;;;;;;;9.20;99.90;;;-146.41;100.00;57768.22;5040793;28;1898;-66
2024/02/22 10:09:27;;;;;;;;;;;9.20;99.90;;;-146.41;100.00;57768.22;5052942;28;1934;-67
2024/02/22 10:11:54;;;;;;;;;;;9.20;99.90;;;-146.41;100.00;57768.22;5037335;28;1296;-66
2024/02/22 10:14:21;;;;;;;;;;;9.20;99.90;;;-146.41;100.00;57768.22;5037358;28;1156;-67
2024/02/22 10:16:48;;;;;;;;;;;9.20;99.90;;;-146.41;100.00;57768.22;5036956;28;1049;-67
2024/02/22 10:19:15;;;;;;;;;;;9.30;99.90;;;-146.41;100.00;57768.22;5036621;28;1125;-66
2024/02/22 10:21:44;;;;;;;;;;;9.30;99.90;;;-146.41;100.00;57768.22;5038011;28;1351;-66
2024/02/22 10:24:11;;;;;;;;;;;9.30;99.90;;;-146.41;100.00;57768.22;5034733;28;3294;-66
2024/02/22 10:26:38;;;;;;;;;;;9.30;99.90;;;-146.41;100.00;57768.22;5040821;28;2603;-67
2024/02/22 10:29:08;;;;;;;;;;;9.30;99.90;;;-146.41;100.00;57768.22;5039573;28;1344;-66
2024/02/22 10:31:47;;;;;;;;;;;9.40;99.90;;;-146.41;100.00;57768.22;5036463;28;1307;-67
2024/02/22 10:34:14;;;;;;;;;;;9.40;99.90;;;-146.41;100.00;57768.22;5039948;28;1253;-66
2024/02/22 10:36:44;;;;;;;;;;;9.50;99.90;;;-146.41;100.00;57768.22;5039456;28;1163;-67
2024/02/22 10:39:12;;;;;;;;;;;9.50;99.90;;;-146.41;100.00;57768.22;5053753;28;2719;-66
2024/02/22 10:41:39;;;;;;;;;;;9.50;99.90;;;-146.41;100.00;57768.22;5042370;28;1353;-66
2024/02/22 10:44:06;;;;;;;;;;;9.50;99.90;;;-146.41;100.00;57768.22;5042333;28;1201;-67
2024/02/22 10:46:37;;;;;;;;;;;9.40;99.90;;;-146.41;100.00;57768.22;5041086;28;1998;-65
2024/02/22 10:49:10;;;;;;;;;;;9.50;99.90;;;-146.41;100.00;57768.22;5038904;28;1743;-66
2024/02/22 10:51:40;;;;;;;;;;;9.50;99.90;;;-146.41;100.00;57768.22;5041725;28;2432;-67
2024/02/22 10:54:10;;;;;;;;;;;9.40;99.90;;;-146.41;100.00;57768.22;5040275;28;2531;-67
2024/02/22 10:56:45;;;;;;;;;;;9.40;99.90;;;-146.41;100.00;57768.22;5042516;28;1527;-67
2024/02/22 10:59:15;;;;;;;;;;;9.50;99.90;;;-146.41;100.00;57768.22;5056356;28;1436;-67
2024/02/22 11:01:42;;;;;;;;;;;9.50;99.90;;;-146.41;100.00;57768.22;5058008;28;1480;-67
2024/02/22 11:04:11;;;;;;;;;;;9.50;99.90;;;-146.41;100.00;57768.22;5040055;28;1475;-66
2024/02/22 11:06:39;;;;;;;;;;;9.50;99.90;;;-146.41;100.00;57768.22;5039158;28;3155;-67
2024/02/22 11:09:16;;;;;;;;;;;9.50;99.90;;;-146.41;100.00;57768.22;5053182;28;1198;-66
2024/02/22 11:11:43;;;;;;;;;;;9.60;99.90;;;-146.41;100.00;57768.22;5042202;28;1365;-67